sensor_id;sensor_type;location;lat;lon;timestamp;pressure;altitude;pressure_sealevel;temperature;humidity
20027;BME280;10174;42.688;23.344;2023-05-01T00:00:24;95276.00;;;10.34;84.10
20027;BME280;10174;42.688;23.344;2023-05-01T00:02:49;95247.75;;;10.22;83.70
20027;BME280;10174;42.688;23.344;2023-05-01T00:05:14;95286.44;;;10.31;83.67
20027;BME280;10174;42.688;23.344;2023-05-01T00:07:40;95203.50;;;9.71;83.96
20027;BME280;10174;42.688;23.344;2023-05-01T00:10:06;95285.59;;;10.20;83.72
20027;BME280;10174;42.688;23.344;2023-05-01T00:12:32;95295.22;;;10.16;84.46
20027;BME280;10174;42.688;23.344;2023-05-01T00:14:57;95289.06;;;10.21;84.30
20027;BME280;10174;42.688;23.344;2023-05-01T00:17:23;95291.25;;;10.29;83.94
20027;BME280;10174;42.688;23.344;2023-05-01T00:19:52;95292.41;;;10.38;83.24
20027;BME280;10174;42.688;23.344;2023-05-01T00:22:17;95253.38;;;10.20;82.64
20027;BME280;10174;42.688;23.344;2023-05-01T00:24:43;95267.09;;;10.29;82.54
20027;BME280;10174;42.688;23.344;2023-05-01T00:27:08;95265.19;;;10.24;82.10
20027;BME280;10174;42.688;23.344;2023-05-01T00:29:34;95291.25;;;10.24;82.25
20027;BME280;10174;42.688;23.344;2023-05-01T00:31:59;95253.00;;;9.96;82.84
20027;BME280;10174;42.688;23.344;2023-05-01T00:34:24;95259.41;;;9.90;83.43
20027;BME280;10174;42.688;23.344;2023-05-01T00:36:50;95298.69;;;10.11;84.22
20027;BME280;10174;42.688;23.344;2023-05-01T00:39:15;95262.63;;;9.97;83.68
20027;BME280;10174;42.688;23.344;2023-05-01T00:41:40;95302.50;;;10.21;83.83
20027;BME280;10174;42.688;23.344;2023-05-01T00:44:06;95288.22;;;10.10;84.03
20027;BME280;10174;42.688;23.344;2023-05-01T00:46:33;95308.19;;;10.29;84.01
20027;BME280;10174;42.688;23.344;2023-05-01T00:48:58;95288.50;;;10.13;85.19
20027;BME280;10174;42.688;23.344;2023-05-01T00:51:25;95221.19;;;9.72;85.34
20027;BME280;10174;42.688;23.344;2023-05-01T00:53:53;95304.13;;;10.22;84.69
20027;BME280;10174;42.688;23.344;2023-05-01T00:56:18;95316.44;;;10.12;84.29
20027;BME280;10174;42.688;23.344;2023-05-01T00:58:45;95312.50;;;9.88;84.84
20027;BME280;10174;42.688;23.344;2023-05-01T01:01:13;95314.13;;;9.89;85.60
20027;BME280;10174;42.688;23.344;2023-05-01T01:03:40;95318.72;;;9.93;85.88
20027;BME280;10174;42.688;23.344;2023-05-01T01:06:14;95317.91;;;9.93;86.36
20027;BME280;10174;42.688;23.344;2023-05-01T01:12:00;95319.47;;;9.84;85.74
20027;BME280;10174;42.688;23.344;2023-05-01T01:14:32;95316.41;;;9.70;86.19
20027;BME280;10174;42.688;23.344;2023-05-01T01:17:16;95292.88;;;9.44;86.90
20027;BME280;10174;42.688;23.344;2023-05-01T01:20:03;95319.28;;;9.58;89.17
20027;BME280;10174;42.688;23.344;2023-05-01T01:22:39;95327.91;;;9.65;89.37
20027;BME280;10174;42.688;23.344;2023-05-01T01:30:33;95337.97;;;9.53;88.15
20027;BME280;10174;42.688;23.344;2023-05-01T01:36:07;95337.91;;;9.42;88.30
20027;BME280;10174;42.688;23.344;2023-05-01T01:38:39;95337.34;;;9.40;88.49
20027;BME280;10174;42.688;23.344;2023-05-01T01:41:13;95331.91;;;9.30;88.81
20027;BME280;10174;42.688;23.344;2023-05-01T01:43:46;95336.19;;;9.31;88.79
20027;BME280;10174;42.688;23.344;2023-05-01T01:46:17;95345.25;;;9.25;89.37
20027;BME280;10174;42.688;23.344;2023-05-01T01:48:47;95313.19;;;9.08;89.33
20027;BME280;10174;42.688;23.344;2023-05-01T01:51:15;95334.94;;;9.12;89.94
20027;BME280;10174;42.688;23.344;2023-05-01T01:53:45;95331.69;;;9.09;89.95
20027;BME280;10174;42.688;23.344;2023-05-01T01:56:13;95310.13;;;8.94;90.14
20027;BME280;10174;42.688;23.344;2023-05-01T01:58:40;95336.44;;;9.02;90.12
20027;BME280;10174;42.688;23.344;2023-05-01T02:01:07;95295.91;;;8.94;90.05
20027;BME280;10174;42.688;23.344;2023-05-01T02:03:33;95305.63;;;9.00;89.45
20027;BME280;10174;42.688;23.344;2023-05-01T02:06:00;95298.84;;;8.92;89.96
20027;BME280;10174;42.688;23.344;2023-05-01T02:08:29;95315.44;;;8.89;89.90
20027;BME280;10174;42.688;23.344;2023-05-01T02:10:56;95288.34;;;8.63;90.48
20027;BME280;10174;42.688;23.344;2023-05-01T02:13:27;95204.47;;;8.08;91.18
20027;BME280;10174;42.688;23.344;2023-05-01T02:15:55;95287.31;;;8.64;92.32
20027;BME280;10174;42.688;23.344;2023-05-01T02:18:21;95306.25;;;8.85;92.54
20027;BME280;10174;42.688;23.344;2023-05-01T02:20:47;95324.06;;;8.96;91.92
20027;BME280;10174;42.688;23.344;2023-05-01T02:23:13;95191.81;;;8.03;91.41
20027;BME280;10174;42.688;23.344;2023-05-01T02:25:39;95327.66;;;8.80;91.38
20027;BME280;10174;42.688;23.344;2023-05-01T02:28:12;95328.16;;;8.77;91.42
20027;BME280;10174;42.688;23.344;2023-05-01T02:30:38;95333.19;;;8.73;91.66
20027;BME280;10174;42.688;23.344;2023-05-01T02:33:06;95217.44;;;7.99;91.68
20027;BME280;10174;42.688;23.344;2023-05-01T02:35:38;95322.25;;;8.52;91.90
20027;BME280;10174;42.688;23.344;2023-05-01T02:38:03;95334.38;;;8.60;91.88
20027;BME280;10174;42.688;23.344;2023-05-01T02:40:29;95326.78;;;8.52;92.50
20027;BME280;10174;42.688;23.344;2023-05-01T02:42:56;95338.31;;;8.52;92.60
20027;BME280;10174;42.688;23.344;2023-05-01T02:45:23;95322.03;;;8.37;92.66
20027;BME280;10174;42.688;23.344;2023-05-01T02:47:51;95276.13;;;8.06;93.03
20027;BME280;10174;42.688;23.344;2023-05-01T02:50:21;95337.25;;;8.36;92.99
20027;BME280;10174;42.688;23.344;2023-05-01T02:52:47;95325.88;;;8.24;93.43
20027;BME280;10174;42.688;23.344;2023-05-01T02:55:14;95191.50;;;7.39;93.11
20027;BME280;10174;42.688;23.344;2023-05-01T02:57:40;95314.41;;;8.07;93.16
20027;BME280;10174;42.688;23.344;2023-05-01T03:00:06;95331.06;;;8.14;93.48
20027;BME280;10174;42.688;23.344;2023-05-01T03:02:33;95314.91;;;8.03;93.83
20027;BME280;10174;42.688;23.344;2023-05-01T03:04:59;95337.41;;;8.08;94.02
20027;BME280;10174;42.688;23.344;2023-05-01T03:07:24;95352.03;;;8.17;94.64
20027;BME280;10174;42.688;23.344;2023-05-01T03:09:49;95360.09;;;8.22;95.86
20027;BME280;10174;42.688;23.344;2023-05-01T03:12:15;95284.13;;;7.84;95.48
20027;BME280;10174;42.688;23.344;2023-05-01T03:14:40;95255.28;;;7.69;95.17
20027;BME280;10174;42.688;23.344;2023-05-01T03:17:06;95329.88;;;8.22;94.70
20027;BME280;10174;42.688;23.344;2023-05-01T03:19:31;95277.41;;;7.81;94.59
20027;BME280;10174;42.688;23.344;2023-05-01T03:21:58;95342.66;;;8.19;94.81
20027;BME280;10174;42.688;23.344;2023-05-01T03:24:24;95357.38;;;8.17;94.70
20027;BME280;10174;42.688;23.344;2023-05-01T03:26:49;95319.31;;;7.93;95.16
20027;BME280;10174;42.688;23.344;2023-05-01T03:29:14;95355.75;;;8.16;94.80
20027;BME280;10174;42.688;23.344;2023-05-01T03:31:40;95350.78;;;8.08;94.87
20027;BME280;10174;42.688;23.344;2023-05-01T03:34:05;95353.47;;;8.08;94.63
20027;BME280;10174;42.688;23.344;2023-05-01T03:36:31;95365.88;;;8.14;95.10
20027;BME280;10174;42.688;23.344;2023-05-01T03:38:58;95353.66;;;8.01;95.30
20027;BME280;10174;42.688;23.344;2023-05-01T03:41:23;95373.81;;;8.09;95.29
20027;BME280;10174;42.688;23.344;2023-05-01T03:43:49;95378.13;;;8.10;95.35
20027;BME280;10174;42.688;23.344;2023-05-01T03:46:14;95369.63;;;8.13;95.20
20027;BME280;10174;42.688;23.344;2023-05-01T03:48:40;95355.59;;;8.06;94.83
20027;BME280;10174;42.688;23.344;2023-05-01T03:51:05;95380.38;;;8.18;94.29
20027;BME280;10174;42.688;23.344;2023-05-01T03:53:31;95300.44;;;7.65;93.93
20027;BME280;10174;42.688;23.344;2023-05-01T03:55:57;95363.88;;;7.87;94.27
20027;BME280;10174;42.688;23.344;2023-05-01T03:58:22;95369.72;;;7.84;94.96
20027;BME280;10174;42.688;23.344;2023-05-01T04:00:47;95373.44;;;7.83;94.61
20027;BME280;10174;42.688;23.344;2023-05-01T04:03:13;95339.97;;;7.63;94.32
20027;BME280;10174;42.688;23.344;2023-05-01T04:05:39;95371.00;;;7.98;94.21
20027;BME280;10174;42.688;23.344;2023-05-01T04:08:04;95269.13;;;7.44;94.01
20027;BME280;10174;42.688;23.344;2023-05-01T04:10:30;95371.59;;;8.00;94.34
20027;BME280;10174;42.688;23.344;2023-05-01T04:12:55;95371.00;;;7.98;94.21
20027;BME280;10174;42.688;23.344;2023-05-01T04:15:20;95391.28;;;8.11;94.55
20027;BME280;10174;42.688;23.344;2023-05-01T04:17:46;95389.94;;;8.31;94.12
20027;BME280;10174;42.688;23.344;2023-05-01T04:20:12;95368.22;;;8.10;95.02
20027;BME280;10174;42.688;23.344;2023-05-01T04:22:38;95395.59;;;8.34;95.25
20027;BME280;10174;42.688;23.344;2023-05-01T04:25:03;95362.22;;;8.20;94.98
20027;BME280;10174;42.688;23.344;2023-05-01T04:27:29;95259.84;;;7.69;94.59
20027;BME280;10174;42.688;23.344;2023-05-01T04:29:55;95381.31;;;8.46;94.37
20027;BME280;10174;42.688;23.344;2023-05-01T04:32:21;95396.03;;;8.65;94.22
20027;BME280;10174;42.688;23.344;2023-05-01T04:34:46;95399.91;;;8.74;93.43
20027;BME280;10174;42.688;23.344;2023-05-01T04:37:12;95399.53;;;8.88;93.18
20027;BME280;10174;42.688;23.344;2023-05-01T04:39:38;95369.63;;;8.74;93.04
20027;BME280;10174;42.688;23.344;2023-05-01T04:42:04;95396.22;;;8.81;92.36
20027;BME280;10174;42.688;23.344;2023-05-01T04:44:29;95379.34;;;8.80;92.35
20027;BME280;10174;42.688;23.344;2023-05-01T04:46:55;95373.66;;;8.99;92.00
20027;BME280;10174;42.688;23.344;2023-05-01T04:49:21;95397.75;;;9.21;91.39
20027;BME280;10174;42.688;23.344;2023-05-01T04:51:47;95403.16;;;9.26;90.66
20027;BME280;10174;42.688;23.344;2023-05-01T04:54:12;95386.97;;;9.16;90.47
20027;BME280;10174;42.688;23.344;2023-05-01T04:56:38;95386.97;;;9.16;89.76
20027;BME280;10174;42.688;23.344;2023-05-01T04:59:03;95408.06;;;9.34;90.15
20027;BME280;10174;42.688;23.344;2023-05-01T05:01:28;95397.41;;;9.39;89.09
20027;BME280;10174;42.688;23.344;2023-05-01T05:03:54;95390.97;;;9.40;88.32
20027;BME280;10174;42.688;23.344;2023-05-01T05:06:20;95419.41;;;9.69;88.49
20027;BME280;10174;42.688;23.344;2023-05-01T05:08:45;95397.66;;;9.65;88.21
20027;BME280;10174;42.688;23.344;2023-05-01T05:11:11;95330.78;;;9.26;87.45
20027;BME280;10174;42.688;23.344;2023-05-01T05:13:36;95406.13;;;9.84;87.62
20027;BME280;10174;42.688;23.344;2023-05-01T05:16:02;95420.69;;;9.93;86.93
20027;BME280;10174;42.688;23.344;2023-05-01T05:18:27;95421.81;;;9.97;87.23
20027;BME280;10174;42.688;23.344;2023-05-01T05:20:53;95358.84;;;9.45;86.04
20027;BME280;10174;42.688;23.344;2023-05-01T05:23:18;95422.22;;;9.84;85.78
20027;BME280;10174;42.688;23.344;2023-05-01T05:25:43;95419.88;;;9.93;85.54
20027;BME280;10174;42.688;23.344;2023-05-01T05:28:09;95438.47;;;10.05;85.40
20027;BME280;10174;42.688;23.344;2023-05-01T05:30:34;95429.03;;;9.97;85.53
20027;BME280;10174;42.688;23.344;2023-05-01T05:33:00;95412.34;;;9.90;85.68
20027;BME280;10174;42.688;23.344;2023-05-01T05:35:25;95364.09;;;9.62;85.94
20027;BME280;10174;42.688;23.344;2023-05-01T05:37:51;95439.16;;;10.22;84.86
20027;BME280;10174;42.688;23.344;2023-05-01T05:40:17;95436.38;;;10.44;83.96
20027;BME280;10174;42.688;23.344;2023-05-01T05:42:43;95330.47;;;9.87;83.82
20027;BME280;10174;42.688;23.344;2023-05-01T05:45:09;95440.84;;;10.71;82.90
20027;BME280;10174;42.688;23.344;2023-05-01T05:47:34;95395.78;;;10.36;82.94
20027;BME280;10174;42.688;23.344;2023-05-01T05:49:59;95436.06;;;10.83;82.29
20027;BME280;10174;42.688;23.344;2023-05-01T05:52:25;95434.44;;;10.82;83.44
20027;BME280;10174;42.688;23.344;2023-05-01T05:54:50;95348.47;;;10.29;82.15
20027;BME280;10174;42.688;23.344;2023-05-01T05:57:16;95425.25;;;10.68;82.87
20027;BME280;10174;42.688;23.344;2023-05-01T05:59:41;95425.53;;;10.72;82.05
20027;BME280;10174;42.688;23.344;2023-05-01T06:02:08;95463.03;;;10.99;82.19
20027;BME280;10174;42.688;23.344;2023-05-01T06:04:33;95345.53;;;10.31;81.58
20027;BME280;10174;42.688;23.344;2023-05-01T06:06:58;95453.38;;;11.03;81.52
20027;BME280;10174;42.688;23.344;2023-05-01T06:09:24;95426.44;;;10.98;81.21
20027;BME280;10174;42.688;23.344;2023-05-01T06:11:50;95455.88;;;11.25;80.98
20027;BME280;10174;42.688;23.344;2023-05-01T06:14:15;95467.72;;;11.34;80.32
20027;BME280;10174;42.688;23.344;2023-05-01T06:16:41;95463.22;;;11.50;79.63
20027;BME280;10174;42.688;23.344;2023-05-01T06:19:07;95462.19;;;11.67;79.37
20027;BME280;10174;42.688;23.344;2023-05-01T06:21:34;95462.19;;;11.67;79.10
20027;BME280;10174;42.688;23.344;2023-05-01T06:24:00;95472.97;;;11.82;78.06
20027;BME280;10174;42.688;23.344;2023-05-01T06:26:25;95462.78;;;12.00;77.26
20027;BME280;10174;42.688;23.344;2023-05-01T06:28:52;95348.84;;;11.27;77.68
20027;BME280;10174;42.688;23.344;2023-05-01T06:31:18;95468.72;;;12.22;77.21
20027;BME280;10174;42.688;23.344;2023-05-01T06:33:44;95467.66;;;12.28;76.58
20027;BME280;10174;42.688;23.344;2023-05-01T06:36:09;95470.88;;;12.41;75.62
20027;BME280;10174;42.688;23.344;2023-05-01T06:38:34;95356.19;;;11.93;74.77
20027;BME280;10174;42.688;23.344;2023-05-01T06:41:00;95463.75;;;13.12;73.50
20027;BME280;10174;42.688;23.344;2023-05-01T06:43:25;95439.38;;;13.32;71.96
20027;BME280;10174;42.688;23.344;2023-05-01T06:45:54;95450.94;;;13.93;69.07
20027;BME280;10174;42.688;23.344;2023-05-01T06:48:20;95469.69;;;14.48;66.82
20027;BME280;10174;42.688;23.344;2023-05-01T06:50:45;95468.19;;;13.97;68.55
20027;BME280;10174;42.688;23.344;2023-05-01T06:53:11;95476.75;;;13.65;69.92
20027;BME280;10174;42.688;23.344;2023-05-01T06:55:36;95468.91;;;13.63;70.88
20027;BME280;10174;42.688;23.344;2023-05-01T06:58:02;95366.94;;;13.05;69.98
20027;BME280;10174;42.688;23.344;2023-05-01T07:00:28;95460.25;;;13.71;69.86
20027;BME280;10174;42.688;23.344;2023-05-01T07:02:53;95387.59;;;13.30;69.35
20027;BME280;10174;42.688;23.344;2023-05-01T07:05:19;95467.63;;;14.00;68.94
20027;BME280;10174;42.688;23.344;2023-05-01T07:07:44;95420.44;;;13.93;68.76
20027;BME280;10174;42.688;23.344;2023-05-01T07:10:10;95474.97;;;14.29;67.93
20027;BME280;10174;42.688;23.344;2023-05-01T07:12:35;95421.75;;;14.30;67.42
20027;BME280;10174;42.688;23.344;2023-05-01T07:15:01;95428.09;;;14.73;65.54
20027;BME280;10174;42.688;23.344;2023-05-01T07:17:28;95468.00;;;14.87;64.94
20027;BME280;10174;42.688;23.344;2023-05-01T07:19:53;95448.56;;;14.85;65.09
20027;BME280;10174;42.688;23.344;2023-05-01T07:22:18;95474.50;;;15.10;65.44
20027;BME280;10174;42.688;23.344;2023-05-01T07:24:44;95464.91;;;14.99;65.02
20027;BME280;10174;42.688;23.344;2023-05-01T07:27:09;95454.88;;;14.99;64.48
20027;BME280;10174;42.688;23.344;2023-05-01T07:29:37;95431.09;;;14.96;64.31
20027;BME280;10174;42.688;23.344;2023-05-01T07:32:02;95443.47;;;15.02;63.94
20027;BME280;10174;42.688;23.344;2023-05-01T07:34:29;95468.97;;;15.44;63.52
20027;BME280;10174;42.688;23.344;2023-05-01T07:36:55;95456.13;;;15.31;63.24
20027;BME280;10174;42.688;23.344;2023-05-01T07:39:21;95456.53;;;15.43;62.58
20027;BME280;10174;42.688;23.344;2023-05-01T07:41:46;95461.53;;;15.31;63.76
20027;BME280;10174;42.688;23.344;2023-05-01T07:44:12;95473.16;;;15.56;63.70
20027;BME280;10174;42.688;23.344;2023-05-01T07:46:38;95470.44;;;15.99;61.93
20027;BME280;10174;42.688;23.344;2023-05-01T07:49:04;95397.28;;;16.32;60.07
20027;BME280;10174;42.688;23.344;2023-05-01T07:51:30;95464.84;;;16.75;59.54
20027;BME280;10174;42.688;23.344;2023-05-01T07:53:56;95442.50;;;16.50;59.69
20027;BME280;10174;42.688;23.344;2023-05-01T07:56:21;95420.84;;;16.17;59.20
20027;BME280;10174;42.688;23.344;2023-05-01T07:58:46;95417.94;;;16.28;60.14
20027;BME280;10174;42.688;23.344;2023-05-01T08:01:12;95442.41;;;16.88;58.20
20027;BME280;10174;42.688;23.344;2023-05-01T08:03:37;95476.41;;;17.55;56.90
20027;BME280;10174;42.688;23.344;2023-05-01T08:06:03;95475.66;;;17.63;56.08
20027;BME280;10174;42.688;23.344;2023-05-01T08:08:29;95443.66;;;17.88;55.25
20027;BME280;10174;42.688;23.344;2023-05-01T08:10:54;95451.56;;;17.98;54.96
20027;BME280;10174;42.688;23.344;2023-05-01T08:13:20;95367.41;;;17.34;54.71
20027;BME280;10174;42.688;23.344;2023-05-01T08:15:46;95461.13;;;18.32;54.66
20027;BME280;10174;42.688;23.344;2023-05-01T08:18:12;95421.03;;;17.93;55.39
20027;BME280;10174;42.688;23.344;2023-05-01T08:20:43;95461.34;;;18.67;51.64
20027;BME280;10174;42.688;23.344;2023-05-01T08:23:09;95463.22;;;18.58;53.13
20027;BME280;10174;42.688;23.344;2023-05-01T08:25:35;95447.16;;;18.71;53.17
20027;BME280;10174;42.688;23.344;2023-05-01T08:28:00;95463.38;;;19.16;51.67
20027;BME280;10174;42.688;23.344;2023-05-01T08:30:25;95458.75;;;21.35;46.40
20027;BME280;10174;42.688;23.344;2023-05-01T08:32:51;95437.19;;;23.02;41.44
20027;BME280;10174;42.688;23.344;2023-05-01T08:35:16;95440.00;;;23.27;39.56
20027;BME280;10174;42.688;23.344;2023-05-01T08:37:42;95376.22;;;23.92;37.75
20027;BME280;10174;42.688;23.344;2023-05-01T08:40:07;95441.19;;;25.17;35.96
20027;BME280;10174;42.688;23.344;2023-05-01T08:42:34;95457.06;;;25.71;34.87
20027;BME280;10174;42.688;23.344;2023-05-01T08:45:02;95444.03;;;26.20;34.44
20027;BME280;10174;42.688;23.344;2023-05-01T08:47:29;95440.69;;;28.69;30.01
20027;BME280;10174;42.688;23.344;2023-05-01T08:49:56;95358.16;;;26.73;31.63
20027;BME280;10174;42.688;23.344;2023-05-01T08:52:22;95361.78;;;27.27;30.51
20027;BME280;10174;42.688;23.344;2023-05-01T08:54:49;95449.69;;;28.62;29.65
20027;BME280;10174;42.688;23.344;2023-05-01T08:57:19;95432.97;;;28.51;29.00
20027;BME280;10174;42.688;23.344;2023-05-01T08:59:47;95357.13;;;28.45;28.14
20027;BME280;10174;42.688;23.344;2023-05-01T09:02:14;95375.88;;;27.45;29.56
20027;BME280;10174;42.688;23.344;2023-05-01T09:04:40;95440.00;;;28.45;29.22
20027;BME280;10174;42.688;23.344;2023-05-01T09:07:06;95440.50;;;27.70;29.87
20027;BME280;10174;42.688;23.344;2023-05-01T09:09:32;95432.25;;;29.33;28.04
20027;BME280;10174;42.688;23.344;2023-05-01T09:12:07;95441.63;;;28.50;28.88
20027;BME280;10174;42.688;23.344;2023-05-01T09:14:35;95420.66;;;28.15;29.33
20027;BME280;10174;42.688;23.344;2023-05-01T09:17:00;95414.09;;;28.94;27.18
20027;BME280;10174;42.688;23.344;2023-05-01T09:19:26;95426.50;;;28.40;28.56
20027;BME280;10174;42.688;23.344;2023-05-01T09:21:55;95449.78;;;29.52;28.08
20027;BME280;10174;42.688;23.344;2023-05-01T09:24:23;95428.75;;;29.88;26.83
20027;BME280;10174;42.688;23.344;2023-05-01T09:26:50;95457.59;;;29.39;27.27
20027;BME280;10174;42.688;23.344;2023-05-01T09:29:39;95446.97;;;29.93;26.92
20027;BME280;10174;42.688;23.344;2023-05-01T09:32:34;95444.44;;;28.87;29.09
20027;BME280;10174;42.688;23.344;2023-05-01T09:35:11;95305.34;;;27.74;29.50
20027;BME280;10174;42.688;23.344;2023-05-01T09:37:37;95430.44;;;28.39;28.08
20027;BME280;10174;42.688;23.344;2023-05-01T09:40:11;95443.25;;;30.33;26.28
20027;BME280;10174;42.688;23.344;2023-05-01T09:42:48;95350.19;;;30.22;24.97
20027;BME280;10174;42.688;23.344;2023-05-01T09:45:14;95423.75;;;31.93;23.93
20027;BME280;10174;42.688;23.344;2023-05-01T09:47:43;95443.38;;;29.40;26.34
20027;BME280;10174;42.688;23.344;2023-05-01T09:50:11;95420.34;;;29.25;26.55
20027;BME280;10174;42.688;23.344;2023-05-01T09:52:36;95348.34;;;29.18;26.38
20027;BME280;10174;42.688;23.344;2023-05-01T09:55:14;95433.13;;;30.66;25.23
20027;BME280;10174;42.688;23.344;2023-05-01T09:57:41;95419.22;;;29.82;26.30
20027;BME280;10174;42.688;23.344;2023-05-01T10:00:08;95412.25;;;31.95;23.92
20027;BME280;10174;42.688;23.344;2023-05-01T10:02:34;95432.25;;;32.78;23.24
20027;BME280;10174;42.688;23.344;2023-05-01T10:05:01;95420.53;;;32.09;23.02
20027;BME280;10174;42.688;23.344;2023-05-01T10:07:26;95371.06;;;31.36;23.61
20027;BME280;10174;42.688;23.344;2023-05-01T10:09:52;95403.63;;;29.18;26.19
20027;BME280;10174;42.688;23.344;2023-05-01T10:12:25;95428.53;;;28.77;28.00
20027;BME280;10174;42.688;23.344;2023-05-01T10:17:17;95361.00;;;29.71;26.01
20027;BME280;10174;42.688;23.344;2023-05-01T10:19:46;95408.03;;;29.71;26.57
20027;BME280;10174;42.688;23.344;2023-05-01T10:22:13;95334.50;;;28.70;27.73
20027;BME280;10174;42.688;23.344;2023-05-01T10:24:39;95353.75;;;29.00;28.17
20027;BME280;10174;42.688;23.344;2023-05-01T10:27:08;95411.25;;;30.40;26.58
20027;BME280;10174;42.688;23.344;2023-05-01T10:29:35;95377.94;;;29.62;27.00
20027;BME280;10174;42.688;23.344;2023-05-01T10:32:04;95384.03;;;29.82;26.07
20027;BME280;10174;42.688;23.344;2023-05-01T10:34:37;95405.44;;;29.37;26.45
20027;BME280;10174;42.688;23.344;2023-05-01T10:37:10;95405.25;;;29.19;27.13
20027;BME280;10174;42.688;23.344;2023-05-01T10:39:37;95404.63;;;30.73;24.84
20027;BME280;10174;42.688;23.344;2023-05-01T10:42:10;95416.09;;;26.80;29.94
20027;BME280;10174;42.688;23.344;2023-05-01T10:44:39;95407.41;;;25.00;32.72
20027;BME280;10174;42.688;23.344;2023-05-01T10:50:05;95356.03;;;24.41;32.45
20027;BME280;10174;42.688;23.344;2023-05-01T10:55:34;95397.66;;;26.22;30.35
20027;BME280;10174;42.688;23.344;2023-05-01T10:58:00;95315.97;;;27.18;28.18
20027;BME280;10174;42.688;23.344;2023-05-01T11:00:25;95415.78;;;25.36;31.33
20027;BME280;10174;42.688;23.344;2023-05-01T11:02:51;95403.81;;;23.46;33.73
20027;BME280;10174;42.688;23.344;2023-05-01T11:05:16;95379.38;;;22.58;35.63
20027;BME280;10174;42.688;23.344;2023-05-01T11:07:42;95376.97;;;22.02;37.73
20027;BME280;10174;42.688;23.344;2023-05-01T11:10:26;95394.16;;;22.45;37.38
20027;BME280;10174;42.688;23.344;2023-05-01T11:12:51;95407.00;;;22.32;39.07
20027;BME280;10174;42.688;23.344;2023-05-01T11:15:31;95410.53;;;22.66;36.37
20027;BME280;10174;42.688;23.344;2023-05-01T11:18:02;95393.97;;;23.45;33.93
20027;BME280;10174;42.688;23.344;2023-05-01T11:22:56;95401.69;;;26.28;31.31
20027;BME280;10174;42.688;23.344;2023-05-01T11:25:24;95395.53;;;28.95;26.22
20027;BME280;10174;42.688;23.344;2023-05-01T11:27:53;95363.06;;;28.13;27.40
20027;BME280;10174;42.688;23.344;2023-05-01T11:30:19;95394.31;;;28.55;27.24
20027;BME280;10174;42.688;23.344;2023-05-01T11:32:46;95339.44;;;28.53;26.42
20027;BME280;10174;42.688;23.344;2023-05-01T11:35:20;95343.78;;;29.99;24.65
20027;BME280;10174;42.688;23.344;2023-05-01T11:37:46;95320.53;;;29.45;24.75
20027;BME280;10174;42.688;23.344;2023-05-01T11:40:20;95399.72;;;29.19;25.53
20027;BME280;10174;42.688;23.344;2023-05-01T11:42:46;95392.59;;;27.82;27.09
20027;BME280;10174;42.688;23.344;2023-05-01T11:45:11;95402.16;;;25.75;28.85
20027;BME280;10174;42.688;23.344;2023-05-01T11:47:38;95396.09;;;24.58;30.11
20027;BME280;10174;42.688;23.344;2023-05-01T11:50:05;95401.97;;;24.15;31.44
20027;BME280;10174;42.688;23.344;2023-05-01T11:52:46;95391.84;;;23.91;31.88
20027;BME280;10174;42.688;23.344;2023-05-01T11:55:18;95373.06;;;23.40;33.14
20027;BME280;10174;42.688;23.344;2023-05-01T11:57:51;95340.72;;;22.59;34.69
20027;BME280;10174;42.688;23.344;2023-05-01T12:00:28;95290.41;;;22.06;35.53
20027;BME280;10174;42.688;23.344;2023-05-01T12:05:26;95392.22;;;22.45;36.08
20027;BME280;10174;42.688;23.344;2023-05-01T12:10:39;95396.63;;;22.71;35.67
20027;BME280;10174;42.688;23.344;2023-05-01T12:13:06;95386.88;;;22.28;36.59
20027;BME280;10174;42.688;23.344;2023-05-01T12:15:37;95382.41;;;22.23;35.22
20027;BME280;10174;42.688;23.344;2023-05-01T12:18:04;95310.94;;;21.91;35.94
20027;BME280;10174;42.688;23.344;2023-05-01T12:20:54;95404.34;;;22.56;35.64
20027;BME280;10174;42.688;23.344;2023-05-01T12:23:37;95378.75;;;22.98;34.42
20027;BME280;10174;42.688;23.344;2023-05-01T12:26:19;95374.97;;;22.90;34.82
20027;BME280;10174;42.688;23.344;2023-05-01T12:29:04;95398.72;;;22.86;34.42
20027;BME280;10174;42.688;23.344;2023-05-01T12:31:31;95375.16;;;22.61;34.94
20027;BME280;10174;42.688;23.344;2023-05-01T12:34:05;95399.34;;;22.58;35.68
20027;BME280;10174;42.688;23.344;2023-05-01T12:36:32;95399.78;;;22.48;36.61
20027;BME280;10174;42.688;23.344;2023-05-01T12:39:01;95409.66;;;22.40;36.48
20027;BME280;10174;42.688;23.344;2023-05-01T12:46:40;95398.50;;;22.24;36.58
20027;BME280;10174;42.688;23.344;2023-05-01T12:49:06;95404.41;;;22.14;38.27
20027;BME280;10174;42.688;23.344;2023-05-01T12:51:32;95300.00;;;21.58;37.77
20027;BME280;10174;42.688;23.344;2023-05-01T12:53:57;95372.31;;;22.23;36.50
20027;BME280;10174;42.688;23.344;2023-05-01T12:56:24;95391.91;;;22.26;37.89
20027;BME280;10174;42.688;23.344;2023-05-01T12:58:51;95282.97;;;21.31;38.02
20027;BME280;10174;42.688;23.344;2023-05-01T13:01:27;95380.28;;;21.44;39.38
20027;BME280;10174;42.688;23.344;2023-05-01T13:03:53;95407.25;;;21.76;40.14
20027;BME280;10174;42.688;23.344;2023-05-01T13:06:20;95402.69;;;21.88;39.01
20027;BME280;10174;42.688;23.344;2023-05-01T13:08:47;95286.41;;;21.19;39.47
20027;BME280;10174;42.688;23.344;2023-05-01T13:11:16;95370.19;;;21.66;39.44
20027;BME280;10174;42.688;23.344;2023-05-01T13:13:45;95399.81;;;21.64;39.34
20027;BME280;10174;42.688;23.344;2023-05-01T13:16:15;95420.09;;;21.45;38.83
20027;BME280;10174;42.688;23.344;2023-05-01T13:18:51;95397.84;;;21.34;39.63
20027;BME280;10174;42.688;23.344;2023-05-01T13:21:19;95395.63;;;21.28;39.61
20027;BME280;10174;42.688;23.344;2023-05-01T13:23:56;95417.97;;;21.60;38.97
20027;BME280;10174;42.688;23.344;2023-05-01T13:26:25;95414.13;;;21.61;38.32